sensor_id;sensor_type;location;lat;lon;timestamp;temperature;humidity
3156;DHT22;1588;50.892;7.082;2023-06-10T00:05:06;18.90;99.90
3156;DHT22;1588;50.892;7.082;2023-06-10T00:10:10;18.80;99.90
3156;DHT22;1588;50.892;7.082;2023-06-10T00:15:14;18.60;99.90
3156;DHT22;1588;50.892;7.082;2023-06-10T00:20:16;18.40;99.90
3156;DHT22;1588;50.892;7.082;2023-06-10T00:25:19;18.40;99.90
3156;DHT22;1588;50.892;7.082;2023-06-10T00:30:22;18.30;99.90
3156;DHT22;1588;50.892;7.082;2023-06-10T00:35:24;18.10;99.90
3156;DHT22;1588;50.892;7.082;2023-06-10T00:40:27;17.90;99.90
3156;DHT22;1588;50.892;7.082;2023-06-10T00:45:31;17.80;99.90
3156;DHT22;1588;50.892;7.082;2023-06-10T00:50:34;17.60;99.90
3156;DHT22;1588;50.892;7.082;2023-06-10T00:55:41;17.50;99.90
3156;DHT22;1588;50.892;7.082;2023-06-10T01:00:44;17.30;99.90
3156;DHT22;1588;50.892;7.082;2023-06-10T01:05:53;17.20;99.90
3156;DHT22;1588;50.892;7.082;2023-06-10T01:10:59;17.00;99.90
3156;DHT22;1588;50.892;7.082;2023-06-10T01:16:10;16.90;99.90
3156;DHT22;1588;50.892;7.082;2023-06-10T01:21:19;16.80;99.90
3156;DHT22;1588;50.892;7.082;2023-06-10T01:26:29;16.70;99.90
3156;DHT22;1588;50.892;7.082;2023-06-10T01:31:37;16.60;99.90
3156;DHT22;1588;50.892;7.082;2023-06-10T01:36:46;16.50;99.90
3156;DHT22;1588;50.892;7.082;2023-06-10T01:41:49;16.40;99.90
3156;DHT22;1588;50.892;7.082;2023-06-10T01:46:54;16.40;99.90
3156;DHT22;1588;50.892;7.082;2023-06-10T01:51:57;16.20;99.90
3156;DHT22;1588;50.892;7.082;2023-06-10T01:57:00;16.10;99.90
3156;DHT22;1588;50.892;7.082;2023-06-10T02:02:03;16.00;99.90
3156;DHT22;1588;50.892;7.082;2023-06-10T02:07:07;15.90;99.90
3156;DHT22;1588;50.892;7.082;2023-06-10T02:12:10;15.80;99.90
3156;DHT22;1588;50.892;7.082;2023-06-10T02:17:12;15.80;99.90
3156;DHT22;1588;50.892;7.082;2023-06-10T02:22:17;15.70;99.90
3156;DHT22;1588;50.892;7.082;2023-06-10T02:27:19;15.60;99.90
3156;DHT22;1588;50.892;7.082;2023-06-10T02:32:21;15.50;99.90
3156;DHT22;1588;50.892;7.082;2023-06-10T02:37:25;15.40;99.90
3156;DHT22;1588;50.892;7.082;2023-06-10T02:42:30;15.30;99.90
3156;DHT22;1588;50.892;7.082;2023-06-10T02:47:32;15.20;99.90
3156;DHT22;1588;50.892;7.082;2023-06-10T02:52:36;15.20;99.90
3156;DHT22;1588;50.892;7.082;2023-06-10T02:57:39;15.10;99.90
3156;DHT22;1588;50.892;7.082;2023-06-10T03:02:41;15.10;99.90
3156;DHT22;1588;50.892;7.082;2023-06-10T03:07:48;15.00;99.90
3156;DHT22;1588;50.892;7.082;2023-06-10T03:12:50;14.90;99.90
3156;DHT22;1588;50.892;7.082;2023-06-10T03:17:52;14.90;99.90
3156;DHT22;1588;50.892;7.082;2023-06-10T03:22:56;14.80;99.90
3156;DHT22;1588;50.892;7.082;2023-06-10T03:27:58;14.80;99.90
3156;DHT22;1588;50.892;7.082;2023-06-10T03:33:01;14.70;99.90
3156;DHT22;1588;50.892;7.082;2023-06-10T03:38:04;14.80;99.90
3156;DHT22;1588;50.892;7.082;2023-06-10T03:43:07;14.80;99.90
3156;DHT22;1588;50.892;7.082;2023-06-10T03:48:09;14.70;99.90
3156;DHT22;1588;50.892;7.082;2023-06-10T03:53:13;14.70;99.90
3156;DHT22;1588;50.892;7.082;2023-06-10T03:58:16;14.70;99.90
3156;DHT22;1588;50.892;7.082;2023-06-10T04:03:21;14.60;99.90
3156;DHT22;1588;50.892;7.082;2023-06-10T04:08:26;14.70;99.90
3156;DHT22;1588;50.892;7.082;2023-06-10T04:13:29;14.80;99.90
3156;DHT22;1588;50.892;7.082;2023-06-10T04:18:31;14.80;99.90
3156;DHT22;1588;50.892;7.082;2023-06-10T04:23:35;14.90;99.90
3156;DHT22;1588;50.892;7.082;2023-06-10T04:28:37;14.90;99.90
3156;DHT22;1588;50.892;7.082;2023-06-10T04:33:39;15.00;99.90
3156;DHT22;1588;50.892;7.082;2023-06-10T04:38:46;15.00;99.90
3156;DHT22;1588;50.892;7.082;2023-06-10T04:43:48;15.20;99.90
3156;DHT22;1588;50.892;7.082;2023-06-10T04:48:51;15.30;99.90
3156;DHT22;1588;50.892;7.082;2023-06-10T04:53:56;15.50;99.90
3156;DHT22;1588;50.892;7.082;2023-06-10T04:58:59;15.70;99.90
3156;DHT22;1588;50.892;7.082;2023-06-10T05:04:01;15.90;99.90
3156;DHT22;1588;50.892;7.082;2023-06-10T05:09:05;16.10;99.90
3156;DHT22;1588;50.892;7.082;2023-06-10T05:14:07;16.40;99.90
3156;DHT22;1588;50.892;7.082;2023-06-10T05:19:09;16.70;99.90
3156;DHT22;1588;50.892;7.082;2023-06-10T05:24:13;16.90;99.90
3156;DHT22;1588;50.892;7.082;2023-06-10T05:29:16;17.20;99.90
3156;DHT22;1588;50.892;7.082;2023-06-10T05:34:18;17.50;99.90
3156;DHT22;1588;50.892;7.082;2023-06-10T05:39:22;17.70;99.90
3156;DHT22;1588;50.892;7.082;2023-06-10T05:44:24;18.30;99.90
3156;DHT22;1588;50.892;7.082;2023-06-10T05:49:28;18.60;99.90
3156;DHT22;1588;50.892;7.082;2023-06-10T05:54:32;19.00;99.90
3156;DHT22;1588;50.892;7.082;2023-06-10T05:59:34;19.50;99.90
3156;DHT22;1588;50.892;7.082;2023-06-10T06:04:36;19.80;99.90
3156;DHT22;1588;50.892;7.082;2023-06-10T06:09:40;20.30;99.90
3156;DHT22;1588;50.892;7.082;2023-06-10T06:14:42;20.60;99.90
3156;DHT22;1588;50.892;7.082;2023-06-10T06:19:45;20.90;99.90
3156;DHT22;1588;50.892;7.082;2023-06-10T06:24:50;21.30;99.90
3156;DHT22;1588;50.892;7.082;2023-06-10T06:29:53;21.70;99.90
3156;DHT22;1588;50.892;7.082;2023-06-10T06:34:56;22.00;99.90
3156;DHT22;1588;50.892;7.082;2023-06-10T06:40:00;22.60;99.90
3156;DHT22;1588;50.892;7.082;2023-06-10T06:45:02;22.70;99.90
3156;DHT22;1588;50.892;7.082;2023-06-10T06:50:05;23.20;99.90
3156;DHT22;1588;50.892;7.082;2023-06-10T06:55:09;23.50;99.90
3156;DHT22;1588;50.892;7.082;2023-06-10T07:00:12;23.80;99.90
3156;DHT22;1588;50.892;7.082;2023-06-10T07:05:15;24.30;99.90
3156;DHT22;1588;50.892;7.082;2023-06-10T07:10:18;24.50;99.90
3156;DHT22;1588;50.892;7.082;2023-06-10T07:15:22;25.00;99.90
3156;DHT22;1588;50.892;7.082;2023-06-10T07:20:25;25.30;99.90
3156;DHT22;1588;50.892;7.082;2023-06-10T07:25:28;25.70;99.90
3156;DHT22;1588;50.892;7.082;2023-06-10T07:30:31;26.00;99.90
3156;DHT22;1588;50.892;7.082;2023-06-10T07:35:33;26.40;99.90
3156;DHT22;1588;50.892;7.082;2023-06-10T07:40:37;26.70;99.90
3156;DHT22;1588;50.892;7.082;2023-06-10T07:45:40;27.00;99.90
3156;DHT22;1588;50.892;7.082;2023-06-10T07:50:42;27.40;99.90
3156;DHT22;1588;50.892;7.082;2023-06-10T07:55:46;27.70;99.90
3156;DHT22;1588;50.892;7.082;2023-06-10T08:00:49;27.80;99.90
3156;DHT22;1588;50.892;7.082;2023-06-10T08:05:51;27.50;99.90
3156;DHT22;1588;50.892;7.082;2023-06-10T08:10:58;28.30;99.90
3156;DHT22;1588;50.892;7.082;2023-06-10T08:16:00;28.70;99.90
3156;DHT22;1588;50.892;7.082;2023-06-10T08:21:02;28.90;99.90
3156;DHT22;1588;50.892;7.082;2023-06-10T08:26:06;29.30;99.90
3156;DHT22;1588;50.892;7.082;2023-06-10T08:31:08;29.50;99.90
3156;DHT22;1588;50.892;7.082;2023-06-10T08:36:11;29.10;99.90
3156;DHT22;1588;50.892;7.082;2023-06-10T08:41:17;29.60;99.90
3156;DHT22;1588;50.892;7.082;2023-06-10T08:46:21;30.10;99.90
3156;DHT22;1588;50.892;7.082;2023-06-10T08:51:24;30.00;99.90
3156;DHT22;1588;50.892;7.082;2023-06-10T08:56:30;30.60;99.90
3156;DHT22;1588;50.892;7.082;2023-06-10T09:01:33;30.50;99.90
3156;DHT22;1588;50.892;7.082;2023-06-10T09:06:36;31.20;99.90
3156;DHT22;1588;50.892;7.082;2023-06-10T09:11:42;31.00;99.90
3156;DHT22;1588;50.892;7.082;2023-06-10T09:16:44;31.00;99.90
3156;DHT22;1588;50.892;7.082;2023-06-10T09:21:49;31.00;99.90
3156;DHT22;1588;50.892;7.082;2023-06-10T09:27:02;31.10;99.90
3156;DHT22;1588;50.892;7.082;2023-06-10T09:32:06;31.50;99.90
3156;DHT22;1588;50.892;7.082;2023-06-10T09:37:08;31.50;99.40
3156;DHT22;1588;50.892;7.082;2023-06-10T09:42:18;31.80;99.90
3156;DHT22;1588;50.892;7.082;2023-06-10T09:47:21;32.10;99.90
3156;DHT22;1588;50.892;7.082;2023-06-10T09:52:23;32.20;99.70
3156;DHT22;1588;50.892;7.082;2023-06-10T09:57:31;32.60;97.90
3156;DHT22;1588;50.892;7.082;2023-06-10T10:02:45;32.40;98.20
3156;DHT22;1588;50.892;7.082;2023-06-10T10:07:48;32.50;98.00
3156;DHT22;1588;50.892;7.082;2023-06-10T10:12:54;32.70;96.50
3156;DHT22;1588;50.892;7.082;2023-06-10T10:18:00;32.80;96.90
3156;DHT22;1588;50.892;7.082;2023-06-10T10:23:08;32.80;94.80
3156;DHT22;1588;50.892;7.082;2023-06-10T10:28:15;33.10;97.40
3156;DHT22;1588;50.892;7.082;2023-06-10T10:33:23;33.00;93.60
3156;DHT22;1588;50.892;7.082;2023-06-10T10:38:28;32.70;93.90
3156;DHT22;1588;50.892;7.082;2023-06-10T10:43:32;32.80;94.20
3156;DHT22;1588;50.892;7.082;2023-06-10T10:48:37;32.80;92.70
3156;DHT22;1588;50.892;7.082;2023-06-10T10:53:40;31.50;93.30
3156;DHT22;1588;50.892;7.082;2023-06-10T10:59:04;30.80;94.10
3156;DHT22;1588;50.892;7.082;2023-06-10T11:04:07;30.80;93.50
3156;DHT22;1588;50.892;7.082;2023-06-10T11:09:26;31.50;92.50
3156;DHT22;1588;50.892;7.082;2023-06-10T11:14:30;32.00;92.20
3156;DHT22;1588;50.892;7.082;2023-06-10T11:19:34;32.60;92.20
3156;DHT22;1588;50.892;7.082;2023-06-10T11:24:38;32.60;87.30
3156;DHT22;1588;50.892;7.082;2023-06-10T11:29:55;31.30;90.20
3156;DHT22;1588;50.892;7.082;2023-06-10T11:34:57;30.60;91.20
3156;DHT22;1588;50.892;7.082;2023-06-10T11:40:00;31.50;90.80
3156;DHT22;1588;50.892;7.082;2023-06-10T11:45:06;32.30;90.10
3156;DHT22;1588;50.892;7.082;2023-06-10T11:50:09;32.20;87.60
3156;DHT22;1588;50.892;7.082;2023-06-10T11:55:12;31.50;90.50
3156;DHT22;1588;50.892;7.082;2023-06-10T12:00:16;31.00;87.90
3156;DHT22;1588;50.892;7.082;2023-06-10T12:05:19;31.80;90.20
3156;DHT22;1588;50.892;7.082;2023-06-10T12:10:21;32.10;87.60
3156;DHT22;1588;50.892;7.082;2023-06-10T12:15:26;32.70;91.40
3156;DHT22;1588;50.892;7.082;2023-06-10T12:20:31;31.80;82.00
3156;DHT22;1588;50.892;7.082;2023-06-10T12:25:34;32.20;87.30
3156;DHT22;1588;50.892;7.082;2023-06-10T12:30:39;32.60;85.00
3156;DHT22;1588;50.892;7.082;2023-06-10T12:35:47;33.10;86.30
3156;DHT22;1588;50.892;7.082;2023-06-10T12:40:50;33.40;83.20
3156;DHT22;1588;50.892;7.082;2023-06-10T12:45:54;33.30;79.30
3156;DHT22;1588;50.892;7.082;2023-06-10T12:51:00;33.40;80.70
3156;DHT22;1588;50.892;7.082;2023-06-10T12:56:02;33.50;80.20
3156;DHT22;1588;50.892;7.082;2023-06-10T13:01:06;33.40;80.20
3156;DHT22;1588;50.892;7.082;2023-06-10T13:06:08;33.10;79.20
3156;DHT22;1588;50.892;7.082;2023-06-10T13:11:11;32.60;78.60
3156;DHT22;1588;50.892;7.082;2023-06-10T13:16:14;32.60;77.70
3156;DHT22;1588;50.892;7.082;2023-06-10T13:21:17;33.00;82.00
3156;DHT22;1588;50.892;7.082;2023-06-10T13:26:19;32.90;78.70
3156;DHT22;1588;50.892;7.082;2023-06-10T13:31:23;33.00;80.20
3156;DHT22;1588;50.892;7.082;2023-06-10T13:36:25;32.40;82.20
3156;DHT22;1588;50.892;7.082;2023-06-10T13:41:28;31.70;80.80
3156;DHT22;1588;50.892;7.082;2023-06-10T13:46:32;31.10;81.10
3156;DHT22;1588;50.892;7.082;2023-06-10T13:51:34;30.60;86.20
3156;DHT22;1588;50.892;7.082;2023-06-10T13:56:37;30.90;85.80
3156;DHT22;1588;50.892;7.082;2023-06-10T14:01:41;31.40;84.20
3156;DHT22;1588;50.892;7.082;2023-06-10T14:06:43;31.60;85.90
3156;DHT22;1588;50.892;7.082;2023-06-10T14:11:46;31.60;83.90
3156;DHT22;1588;50.892;7.082;2023-06-10T14:16:50;31.50;81.80
3156;DHT22;1588;50.892;7.082;2023-06-10T14:21:53;31.30;81.00
3156;DHT22;1588;50.892;7.082;2023-06-10T14:26:56;31.20;81.50
3156;DHT22;1588;50.892;7.082;2023-06-10T14:32:00;31.20;83.10
3156;DHT22;1588;50.892;7.082;2023-06-10T14:37:04;31.30;82.70
3156;DHT22;1588;50.892;7.082;2023-06-10T14:42:08;31.20;88.70
3156;DHT22;1588;50.892;7.082;2023-06-10T14:47:12;31.10;82.90
3156;DHT22;1588;50.892;7.082;2023-06-10T14:52:15;31.00;84.90
3156;DHT22;1588;50.892;7.082;2023-06-10T14:57:17;31.20;87.50
3156;DHT22;1588;50.892;7.082;2023-06-10T15:02:21;31.40;81.60
3156;DHT22;1588;50.892;7.082;2023-06-10T15:07:24;31.30;81.10
3156;DHT22;1588;50.892;7.082;2023-06-10T15:12:26;31.40;82.10
3156;DHT22;1588;50.892;7.082;2023-06-10T15:17:31;31.50;84.30
3156;DHT22;1588;50.892;7.082;2023-06-10T15:22:33;31.40;78.20
3156;DHT22;1588;50.892;7.082;2023-06-10T15:27:36;31.30;80.60
3156;DHT22;1588;50.892;7.082;2023-06-10T15:32:41;31.40;81.00
3156;DHT22;1588;50.892;7.082;2023-06-10T15:37:44;31.30;79.50
3156;DHT22;1588;50.892;7.082;2023-06-10T15:42:46;30.90;81.40
3156;DHT22;1588;50.892;7.082;2023-06-10T15:47:50;30.80;78.80
3156;DHT22;1588;50.892;7.082;2023-06-10T15:52:52;30.90;79.10
3156;DHT22;1588;50.892;7.082;2023-06-10T15:57:54;30.80;77.70
3156;DHT22;1588;50.892;7.082;2023-06-10T16:02:59;30.80;79.40
3156;DHT22;1588;50.892;7.082;2023-06-10T16:08:04;30.80;78.50
3156;DHT22;1588;50.892;7.082;2023-06-10T16:13:06;30.70;81.00
3156;DHT22;1588;50.892;7.082;2023-06-10T16:18:10;30.80;80.80
3156;DHT22;1588;50.892;7.082;2023-06-10T16:23:13;30.60;77.60
3156;DHT22;1588;50.892;7.082;2023-06-10T16:28:16;30.50;80.60
3156;DHT22;1588;50.892;7.082;2023-06-10T16:33:20;30.50;78.70
3156;DHT22;1588;50.892;7.082;2023-06-10T16:38:23;30.40;81.00
3156;DHT22;1588;50.892;7.082;2023-06-10T16:43:26;30.30;80.80
3156;DHT22;1588;50.892;7.082;2023-06-10T16:48:29;30.30;82.50
3156;DHT22;1588;50.892;7.082;2023-06-10T16:53:32;30.10;83.20
3156;DHT22;1588;50.892;7.082;2023-06-10T16:58:34;30.00;78.70
3156;DHT22;1588;50.892;7.082;2023-06-10T17:03:38;30.00;81.20
3156;DHT22;1588;50.892;7.082;2023-06-10T17:08:41;29.90;80.10
3156;DHT22;1588;50.892;7.082;2023-06-10T17:13:43;29.80;81.10
3156;DHT22;1588;50.892;7.082;2023-06-10T17:18:48;29.70;81.30
3156;DHT22;1588;50.892;7.082;2023-06-10T17:23:50;29.60;82.30
3156;DHT22;1588;50.892;7.082;2023-06-10T17:28:52;29.30;84.00
3156;DHT22;1588;50.892;7.082;2023-06-10T17:33:57;29.20;85.30
3156;DHT22;1588;50.892;7.082;2023-06-10T17:38:59;29.00;84.60
3156;DHT22;1588;50.892;7.082;2023-06-10T17:44:01;28.80;88.20
3156;DHT22;1588;50.892;7.082;2023-06-10T17:49:05;28.80;86.60
3156;DHT22;1588;50.892;7.082;2023-06-10T17:54:10;28.60;88.70
3156;DHT22;1588;50.892;7.082;2023-06-10T17:59:13;28.50;88.40
3156;DHT22;1588;50.892;7.082;2023-06-10T18:04:16;28.30;88.80
3156;DHT22;1588;50.892;7.082;2023-06-10T18:09:19;28.20;91.00
3156;DHT22;1588;50.892;7.082;2023-06-10T18:14:25;27.90;91.00
3156;DHT22;1588;50.892;7.082;2023-06-10T18:25:59;27.50;92.50
3156;DHT22;1588;50.892;7.082;2023-06-10T18:37:10;27.00;93.20
3156;DHT22;1588;50.892;7.082;2023-06-10T18:42:26;26.80;94.00
3156;DHT22;1588;50.892;7.082;2023-06-10T18:47:29;26.60;95.60
3156;DHT22;1588;50.892;7.082;2023-06-10T18:52:32;26.40;95.40
3156;DHT22;1588;50.892;7.082;2023-06-10T18:57:39;26.10;96.00
3156;DHT22;1588;50.892;7.082;2023-06-10T19:02:41;25.90;96.90
3156;DHT22;1588;50.892;7.082;2023-06-10T19:07:44;25.60;99.10
3156;DHT22;1588;50.892;7.082;2023-06-10T19:12:48;25.30;99.90
3156;DHT22;1588;50.892;7.082;2023-06-10T19:17:52;25.10;99.90
3156;DHT22;1588;50.892;7.082;2023-06-10T19:22:54;24.80;99.90
3156;DHT22;1588;50.892;7.082;2023-06-10T19:27:58;24.60;99.90
3156;DHT22;1588;50.892;7.082;2023-06-10T19:33:00;24.30;99.90
3156;DHT22;1588;50.892;7.082;2023-06-10T19:38:03;24.20;99.90
3156;DHT22;1588;50.892;7.082;2023-06-10T19:43:07;23.90;99.90
3156;DHT22;1588;50.892;7.082;2023-06-10T19:48:09;23.70;99.90
3156;DHT22;1588;50.892;7.082;2023-06-10T19:53:11;23.60;99.90
3156;DHT22;1588;50.892;7.082;2023-06-10T19:58:15;23.30;99.90
3156;DHT22;1588;50.892;7.082;2023-06-10T20:03:18;23.20;99.90
3156;DHT22;1588;50.892;7.082;2023-06-10T20:08:20;22.80;99.90
3156;DHT22;1588;50.892;7.082;2023-06-10T20:13:24;22.60;99.90
3156;DHT22;1588;50.892;7.082;2023-06-10T20:18:27;22.40;99.90
3156;DHT22;1588;50.892;7.082;2023-06-10T20:23:29;22.20;99.90
3156;DHT22;1588;50.892;7.082;2023-06-10T20:28:33;22.00;99.90
3156;DHT22;1588;50.892;7.082;2023-06-10T20:33:35;21.80;99.90
3156;DHT22;1588;50.892;7.082;2023-06-10T20:38:39;21.60;99.90
3156;DHT22;1588;50.892;7.082;2023-06-10T20:43:43;21.50;99.90
3156;DHT22;1588;50.892;7.082;2023-06-10T20:48:45;21.30;99.90
3156;DHT22;1588;50.892;7.082;2023-06-10T20:53:48;21.10;99.90
3156;DHT22;1588;50.892;7.082;2023-06-10T20:58:53;21.00;99.90
3156;DHT22;1588;50.892;7.082;2023-06-10T21:03:55;20.80;99.90
3156;DHT22;1588;50.892;7.082;2023-06-10T21:08:57;20.80;99.90
3156;DHT22;1588;50.892;7.082;2023-06-10T21:14:01;20.70;99.90
3156;DHT22;1588;50.892;7.082;2023-06-10T21:19:04;20.50;99.90
3156;DHT22;1588;50.892;7.082;2023-06-10T21:24:07;20.50;99.90
3156;DHT22;1588;50.892;7.082;2023-06-10T21:29:11;20.30;99.90
3156;DHT22;1588;50.892;7.082;2023-06-10T21:34:13;20.20;99.90
3156;DHT22;1588;50.892;7.082;2023-06-10T21:39:16;20.20;99.90
3156;DHT22;1588;50.892;7.082;2023-06-10T21:44:20;20.10;99.90
3156;DHT22;1588;50.892;7.082;2023-06-10T21:49:22;20.00;99.90
3156;DHT22;1588;50.892;7.082;2023-06-10T21:54:25;19.90;99.90
3156;DHT22;1588;50.892;7.082;2023-06-10T21:59:29;19.80;99.90
3156;DHT22;1588;50.892;7.082;2023-06-10T22:04:33;19.70;99.90
3156;DHT22;1588;50.892;7.082;2023-06-10T22:09:36;19.60;99.90
3156;DHT22;1588;50.892;7.082;2023-06-10T22:14:40;19.50;99.90
3156;DHT22;1588;50.892;7.082;2023-06-10T22:19:43;19.50;99.90
3156;DHT22;1588;50.892;7.082;2023-06-10T22:24:54;19.40;99.90
3156;DHT22;1588;50.892;7.082;2023-06-10T22:29:57;19.40;99.90
3156;DHT22;1588;50.892;7.082;2023-06-10T22:35:01;19.30;99.90
3156;DHT22;1588;50.892;7.082;2023-06-10T22:40:10;19.30;99.90
3156;DHT22;1588;50.892;7.082;2023-06-10T22:45:13;19.30;99.90
3156;DHT22;1588;50.892;7.082;2023-06-10T22:50:16;19.30;99.90
3156;DHT22;1588;50.892;7.082;2023-06-10T22:55:18;19.30;99.90
3156;DHT22;1588;50.892;7.082;2023-06-10T23:00:22;19.30;99.90
3156;DHT22;1588;50.892;7.082;2023-06-10T23:05:25;19.30;99.90
3156;DHT22;1588;50.892;7.082;2023-06-10T23:10:27;19.30;99.90
3156;DHT22;1588;50.892;7.082;2023-06-10T23:15:31;19.30;99.90
3156;DHT22;1588;50.892;7.082;2023-06-10T23:20:34;19.40;99.90
3156;DHT22;1588;50.892;7.082;2023-06-10T23:25:36;19.40;99.90
3156;DHT22;1588;50.892;7.082;2023-06-10T23:30:40;19.40;99.90
3156;DHT22;1588;50.892;7.082;2023-06-10T23:35:42;19.50;99.90
3156;DHT22;1588;50.892;7.082;2023-06-10T23:40:45;19.80;99.90
3156;DHT22;1588;50.892;7.082;2023-06-10T23:45:49;19.80;99.90
3156;DHT22;1588;50.892;7.082;2023-06-10T23:50:51;19.80;99.90
3156;DHT22;1588;50.892;7.082;2023-06-10T23:55:54;19.70;99.90
